« Back
NWS Peachtree City, Ga » Text Product » AHN Terminal Aerodrome Forecast


Printer-friendly Version
Current Version              Previous Versions:   1  2  3  4  5  6  7  8  9  

Terminal Aerodrome Forecast

699
FTUS42 KFFC 092338
TAFAHN
TAF
KAHN 092338Z 1000/1024 30010KT P6SM SCT030 OVC060
      TEMPO 1000/1004 6SM -SHSN BKN030
     FM100400 30008KT P6SM VCSH BKN040
     FM101300 29011KT P6SM OVC050
     FM101500 29012G22KT P6SM OVC050
     FM101800 29012G22KT P6SM SCT060=

USA.gov is the U.S. government's official web portal to all federal, state and local government web resources and services.